createdAt,value
2018-08-10T00:01:45.592Z,22.67
2018-08-10T00:04:15.665Z,22.63
2018-08-10T00:06:44.708Z,22.63
2018-08-10T00:09:13.871Z,22.64
2018-08-10T00:11:42.960Z,22.64
2018-08-10T00:14:11.864Z,22.61
2018-08-10T00:16:41.444Z,22.64
2018-08-10T00:19:15.740Z,22.61
2018-08-10T00:21:45.162Z,22.64
2018-08-10T00:24:17.544Z,22.60
2018-08-10T00:26:47.621Z,22.53
2018-08-10T00:29:16.650Z,22.40
2018-08-10T00:31:45.849Z,22.51
2018-08-10T00:34:15.354Z,22.64
2018-08-10T00:36:51.862Z,22.54
2018-08-10T00:39:21.256Z,22.60
2018-08-10T00:41:54.982Z,22.67
2018-08-10T00:44:25.437Z,22.70
2018-08-10T00:46:54.558Z,22.76
2018-08-10T00:49:23.541Z,22.83
2018-08-10T00:51:52.672Z,22.84
2018-08-10T00:54:21.634Z,22.93
2018-08-10T00:56:50.676Z,22.93
2018-08-10T00:59:19.748Z,22.98
2018-08-10T01:01:48.851Z,22.98
2018-08-10T01:04:17.879Z,22.92
2018-08-10T01:06:47.237Z,22.90
2018-08-10T01:09:17.153Z,22.81
2018-08-10T01:11:46.215Z,22.69
2018-08-10T01:14:15.613Z,22.66
2018-08-10T01:16:47.944Z,22.69
2018-08-10T01:19:20.700Z,22.67
2018-08-10T01:21:49.803Z,22.63
2018-08-10T01:24:18.804Z,22.62
2018-08-10T01:26:47.783Z,22.55
2018-08-10T01:29:16.732Z,22.48
2018-08-10T01:31:45.816Z,22.47
2018-08-10T01:34:15.275Z,22.43
2018-08-10T01:36:44.271Z,22.41
2018-08-10T01:39:13.344Z,22.39
2018-08-10T01:41:42.966Z,22.40
2018-08-10T01:44:11.819Z,22.32
2018-08-10T01:46:40.778Z,22.30
2018-08-10T01:49:10.213Z,22.23
2018-08-10T01:51:39.180Z,22.27
2018-08-10T01:54:08.262Z,22.28
2018-08-10T01:56:37.498Z,22.29
2018-08-10T01:59:12.826Z,22.26
2018-08-10T02:01:47.363Z,22.23
2018-08-10T02:04:17.291Z,22.29
2018-08-10T02:06:46.243Z,22.25
2018-08-10T02:09:15.245Z,22.30
2018-08-10T02:11:44.101Z,22.33
2018-08-10T02:14:13.097Z,22.31
2018-08-10T02:16:42.107Z,22.25
2018-08-10T02:19:11.179Z,22.25
2018-08-10T02:21:40.367Z,22.21
2018-08-10T02:24:10.247Z,22.25
2018-08-10T02:26:39.157Z,22.28
2018-08-10T02:29:09.121Z,22.27
2018-08-10T02:31:39.234Z,22.21
2018-08-10T02:34:08.261Z,22.17
2018-08-10T02:36:37.528Z,22.19
2018-08-10T02:39:09.201Z,22.16
2018-08-10T02:41:38.243Z,22.11
2018-08-10T02:44:07.828Z,22.07
2018-08-10T02:46:40.698Z,22.05
2018-08-10T02:49:10.082Z,21.99
2018-08-10T02:51:39.593Z,21.97
2018-08-10T02:54:08.962Z,21.92
2018-08-10T02:56:41.696Z,21.93
2018-08-10T02:59:14.766Z,21.92
2018-08-10T03:01:43.835Z,21.89
2018-08-10T03:04:12.694Z,21.91
2018-08-10T03:06:41.985Z,21.94
2018-08-10T03:09:12.043Z,21.95
2018-08-10T03:11:41.161Z,21.95
2018-08-10T03:14:10.479Z,21.97
2018-08-10T03:16:39.368Z,21.92
2018-08-10T03:19:08.352Z,21.95
2018-08-10T03:21:38.008Z,21.95
2018-08-10T03:24:07.114Z,21.94
2018-08-10T03:26:36.088Z,21.94
2018-08-10T03:29:05.275Z,22.00
2018-08-10T03:31:34.217Z,21.99
2018-08-10T03:34:04.000Z,22.04
2018-08-10T03:36:33.443Z,22.06
2018-08-10T03:39:02.480Z,22.08
2018-08-10T03:41:31.401Z,22.10
2018-08-10T03:44:00.667Z,22.19
2018-08-10T03:46:29.590Z,22.25
2018-08-10T03:48:58.628Z,22.27
2018-08-10T03:51:31.401Z,22.32
2018-08-10T03:54:00.482Z,22.41
2018-08-10T03:56:32.901Z,22.44
2018-08-10T03:59:01.749Z,22.51
2018-08-10T04:01:30.664Z,22.60
2018-08-10T04:03:59.645Z,22.65
2018-08-10T04:06:28.599Z,22.71
2018-08-10T04:08:57.592Z,22.69
2018-08-10T04:11:27.457Z,22.72
2018-08-10T04:13:56.279Z,22.75
2018-08-10T04:16:25.290Z,22.83
2018-08-10T04:18:55.115Z,22.96
2018-08-10T04:21:24.138Z,23.08
2018-08-10T04:23:53.191Z,23.23
2018-08-10T04:26:22.904Z,23.36
2018-08-10T04:28:51.900Z,23.51
2018-08-10T04:31:20.791Z,23.60
2018-08-10T04:33:50.079Z,23.79
2018-08-10T04:36:19.005Z,24.02
2018-08-10T04:38:47.958Z,24.19
2018-08-10T04:41:17.099Z,24.36
2018-08-10T04:43:46.121Z,24.54
2018-08-10T04:46:15.281Z,24.83
2018-08-10T04:48:44.860Z,25.08
2018-08-10T04:51:13.913Z,25.44
2018-08-10T04:53:42.792Z,25.64
2018-08-10T04:56:12.138Z,25.97
2018-08-10T04:58:41.053Z,26.13
2018-08-10T05:01:09.961Z,25.99
2018-08-10T05:03:39.656Z,26.12
2018-08-10T05:06:08.544Z,26.27
2018-08-10T05:08:37.502Z,26.37
2018-08-10T05:11:07.081Z,26.58
2018-08-10T05:13:36.097Z,26.64
2018-08-10T05:16:05.124Z,26.68
2018-08-10T05:18:34.553Z,26.53
2018-08-10T05:21:03.660Z,26.58
2018-08-10T05:23:32.521Z,26.53
2018-08-10T05:26:01.687Z,26.28
2018-08-10T05:28:30.713Z,26.37
2018-08-10T05:30:59.571Z,26.58
2018-08-10T05:33:28.821Z,26.19
2018-08-10T05:35:58.260Z,26.62
2018-08-10T05:38:27.219Z,26.80
2018-08-10T05:40:56.392Z,27.13
2018-08-10T05:43:25.228Z,27.02
2018-08-10T05:45:54.208Z,27.21
2018-08-10T05:48:23.387Z,27.33
2018-08-10T05:50:52.432Z,27.34
2018-08-10T05:53:21.488Z,27.45
2018-08-10T05:55:50.764Z,27.61
2018-08-10T05:58:19.706Z,27.69
2018-08-10T06:00:48.737Z,27.57
2018-08-10T06:03:17.724Z,27.41
2018-08-10T06:05:46.789Z,27.14
2018-08-10T06:08:15.883Z,26.96
2018-08-10T06:10:45.328Z,26.65
2018-08-10T06:13:14.171Z,26.66
2018-08-10T06:15:43.356Z,26.50
2018-08-10T06:18:12.783Z,26.46
2018-08-10T06:20:41.741Z,26.40
2018-08-10T06:23:10.525Z,26.34
2018-08-10T06:25:41.910Z,26.38
2018-08-10T06:28:10.802Z,26.43
2018-08-10T06:30:39.732Z,26.45
2018-08-10T06:33:09.003Z,26.43
2018-08-10T06:35:38.073Z,26.44
2018-08-10T06:38:07.241Z,26.45
2018-08-10T06:40:36.433Z,26.33
2018-08-10T06:43:07.529Z,26.34
2018-08-10T06:45:36.955Z,26.45
2018-08-10T06:48:06.352Z,26.56
2018-08-10T06:50:35.516Z,26.68
2018-08-10T06:53:04.856Z,26.74
2018-08-10T06:55:33.665Z,26.39
2018-08-10T06:58:02.755Z,26.29
2018-08-10T07:00:32.160Z,26.50
2018-08-10T07:03:00.931Z,26.65
2018-08-10T07:05:29.913Z,26.67
2018-08-10T07:07:59.167Z,26.68
2018-08-10T07:10:28.100Z,26.85
2018-08-10T07:12:56.954Z,27.05
2018-08-10T07:15:25.840Z,27.05
2018-08-10T07:17:54.663Z,27.12
2018-08-10T07:20:23.664Z,27.12
2018-08-10T07:22:52.785Z,27.32
2018-08-10T07:25:21.837Z,27.41
2018-08-10T07:27:50.761Z,27.60
2018-08-10T07:30:19.727Z,27.70
2018-08-10T07:32:48.484Z,27.82
2018-08-10T07:35:17.382Z,28.06
2018-08-10T07:37:46.225Z,28.42
2018-08-10T07:40:15.101Z,28.45
2018-08-10T07:42:43.905Z,28.64
2018-08-10T07:45:12.752Z,28.24
2018-08-10T07:47:41.535Z,28.67
2018-08-10T07:50:10.509Z,28.56
2018-08-10T07:52:39.744Z,27.67
2018-08-10T07:55:08.655Z,27.85
2018-08-10T07:57:37.645Z,28.07
2018-08-10T08:00:07.180Z,28.24
2018-08-10T08:02:36.171Z,28.07
2018-08-10T08:05:05.032Z,28.03
2018-08-10T08:07:34.323Z,27.80
2018-08-10T08:10:03.064Z,28.05
2018-08-10T08:12:32.039Z,28.40
2018-08-10T08:15:01.031Z,28.56
2018-08-10T08:17:29.969Z,28.48
2018-08-10T08:19:58.934Z,28.78
2018-08-10T08:22:28.377Z,29.19
2018-08-10T08:24:57.290Z,28.96
2018-08-10T08:27:26.243Z,29.26
2018-08-10T08:29:55.339Z,29.56
2018-08-10T08:32:24.115Z,29.73
2018-08-10T08:34:53.039Z,30.04
2018-08-10T08:37:52.933Z,29.15
2018-08-10T08:40:24.758Z,29.52
2018-08-10T08:42:54.169Z,29.84
2018-08-10T08:46:25.836Z,29.07
2018-08-10T08:48:54.889Z,29.08
2018-08-10T08:51:26.161Z,29.12
2018-08-10T08:54:06.435Z,28.98
2018-08-10T08:56:43.456Z,29.37
2018-08-10T08:59:12.359Z,29.43
2018-08-10T09:01:41.271Z,29.87
2018-08-10T09:04:51.881Z,29.20
2018-08-10T09:07:20.910Z,29.45
2018-08-10T09:09:55.215Z,29.77
2018-08-10T09:12:24.156Z,28.94
2018-08-10T09:14:57.419Z,28.86
2018-08-10T09:17:26.379Z,28.62
2018-08-10T09:19:55.227Z,28.77
2018-08-10T09:22:24.546Z,28.88
2018-08-10T09:24:53.334Z,29.01
2018-08-10T09:27:22.164Z,29.33
2018-08-10T09:29:50.986Z,29.29
2018-08-10T09:32:19.813Z,29.68
2018-08-10T09:34:48.691Z,29.94
2018-08-10T09:37:17.853Z,29.62
2018-08-10T09:39:46.705Z,29.70
2018-08-10T09:42:15.760Z,29.38
2018-08-10T09:44:44.499Z,29.23
2018-08-10T09:47:13.484Z,29.12
2018-08-10T09:49:43.957Z,29.26
2018-08-10T09:52:12.899Z,28.96
2018-08-10T09:55:24.881Z,28.75
2018-08-10T09:57:55.536Z,28.46
2018-08-10T10:00:29.415Z,28.65
2018-08-10T10:03:04.076Z,28.76
2018-08-10T10:05:33.020Z,28.94
2018-08-10T10:08:01.885Z,29.26
2018-08-10T10:10:31.136Z,29.53
2018-08-10T10:13:00.068Z,29.82
2018-08-10T10:15:29.106Z,29.42
2018-08-10T10:17:58.418Z,29.31
2018-08-10T10:20:27.305Z,29.36
2018-08-10T10:22:56.242Z,29.40
2018-08-10T10:25:25.552Z,29.27
2018-08-10T10:27:54.368Z,29.41
2018-08-10T10:30:23.304Z,29.53
2018-08-10T10:32:52.257Z,29.68
2018-08-10T10:35:21.128Z,29.99
2018-08-10T10:37:49.931Z,30.29
2018-08-10T10:40:19.224Z,29.61
2018-08-10T10:42:48.125Z,29.90
2018-08-10T10:45:16.985Z,29.44
2018-08-10T10:47:47.329Z,29.28
2018-08-10T10:50:16.899Z,29.17
2018-08-10T10:52:45.741Z,29.10
2018-08-10T10:55:15.035Z,29.07
2018-08-10T10:57:44.448Z,29.78
2018-08-10T11:00:15.213Z,30.35
2018-08-10T11:02:44.402Z,30.84
2018-08-10T11:05:13.328Z,31.17
2018-08-10T11:07:42.689Z,31.34
2018-08-10T11:10:13.004Z,31.56
2018-08-10T11:12:41.906Z,31.88
2018-08-10T11:15:11.755Z,32.14
2018-08-10T11:17:40.709Z,32.18
2018-08-10T11:20:11.069Z,31.65
2018-08-10T11:22:40.841Z,31.16
2018-08-10T11:25:11.005Z,31.18
2018-08-10T11:27:40.586Z,31.42
2018-08-10T11:30:09.957Z,31.43
2018-08-10T11:32:38.723Z,31.30
2018-08-10T11:35:08.154Z,31.06
2018-08-10T11:37:37.297Z,31.14
2018-08-10T11:40:08.731Z,31.34
2018-08-10T11:42:37.621Z,31.26
2018-08-10T11:45:08.631Z,30.85
2018-08-10T11:47:37.590Z,30.44
2018-08-10T11:50:06.810Z,30.08
2018-08-10T11:52:36.473Z,29.83
2018-08-10T11:55:05.911Z,30.24
2018-08-10T11:57:34.883Z,30.39
2018-08-10T12:00:04.194Z,30.28
2018-08-10T12:02:33.013Z,30.55
2018-08-10T12:05:01.895Z,30.62
2018-08-10T12:07:30.825Z,30.44
2018-08-10T12:09:59.755Z,30.69
2018-08-10T12:12:28.609Z,31.19
2018-08-10T12:14:57.875Z,31.53
2018-08-10T12:17:26.719Z,31.75
2018-08-10T12:19:55.597Z,31.46
2018-08-10T12:22:24.739Z,31.01
2018-08-10T12:24:53.498Z,30.97
2018-08-10T12:27:22.323Z,31.01
2018-08-10T12:29:51.186Z,31.26
2018-08-10T12:32:20.003Z,31.32
2018-08-10T12:34:48.871Z,31.42
2018-08-10T12:37:17.841Z,31.54
2018-08-10T12:39:46.695Z,31.76
2018-08-10T12:42:15.642Z,31.86
2018-08-10T12:44:44.545Z,32.01
2018-08-10T12:47:13.431Z,32.17
2018-08-10T12:49:42.225Z,32.04
2018-08-10T12:52:11.163Z,31.76
2018-08-10T12:54:40.018Z,31.85
2018-08-10T12:57:08.921Z,31.92
2018-08-10T12:59:37.796Z,31.59
2018-08-10T13:02:07.333Z,31.28
2018-08-10T13:04:36.133Z,31.12
2018-08-10T13:07:05.074Z,30.97
2018-08-10T13:09:34.015Z,31.05
2018-08-10T13:12:02.980Z,30.68
2018-08-10T13:14:31.769Z,30.63
2018-08-10T13:17:00.553Z,30.06
2018-08-10T13:19:29.420Z,29.90
2018-08-10T13:21:58.731Z,29.57
2018-08-10T13:24:27.596Z,29.76
2018-08-10T13:26:56.422Z,30.18
2018-08-10T13:29:25.299Z,30.44
2018-08-10T13:31:54.233Z,30.76
2018-08-10T13:34:23.125Z,30.98
2018-08-10T13:36:52.022Z,31.15
2018-08-10T13:39:20.802Z,31.37
2018-08-10T13:41:49.610Z,31.57
2018-08-10T13:44:18.770Z,31.74
2018-08-10T13:46:47.685Z,31.98
2018-08-10T13:49:16.565Z,32.17
2018-08-10T13:51:45.732Z,32.36
2018-08-10T13:54:14.616Z,32.48
2018-08-10T13:56:43.442Z,32.30
2018-08-10T13:59:12.620Z,32.27
2018-08-10T14:01:41.448Z,32.28
2018-08-10T14:04:10.241Z,32.14
2018-08-10T14:06:39.712Z,31.44
2018-08-10T14:09:10.445Z,31.67
2018-08-10T14:11:39.913Z,31.72
2018-08-10T14:14:08.912Z,31.83
2018-08-10T14:16:37.714Z,31.88
2018-08-10T14:19:07.125Z,31.48
2018-08-10T14:21:35.970Z,31.55
2018-08-10T14:24:04.983Z,31.64
2018-08-10T14:26:34.029Z,31.77
2018-08-10T14:29:02.826Z,31.89
2018-08-10T14:31:31.854Z,32.14
2018-08-10T14:34:01.065Z,32.31
2018-08-10T14:36:29.971Z,32.09
2018-08-10T14:38:58.862Z,31.81
2018-08-10T14:41:27.793Z,32.13
2018-08-10T14:43:56.699Z,31.58
2018-08-10T14:46:25.699Z,31.28
2018-08-10T14:48:54.774Z,31.56
2018-08-10T14:51:23.812Z,31.21
2018-08-10T14:53:52.718Z,30.81
2018-08-10T14:56:22.157Z,30.81
2018-08-10T14:58:51.035Z,30.57
2018-08-10T15:01:19.902Z,30.52
2018-08-10T15:03:49.251Z,30.36
2018-08-10T15:06:18.208Z,30.41
2018-08-10T15:08:46.947Z,30.27
2018-08-10T15:11:16.521Z,30.12
2018-08-10T15:13:45.416Z,30.19
2018-08-10T15:16:14.345Z,30.36
2018-08-10T15:18:43.105Z,30.50
2018-08-10T15:21:11.979Z,30.75
2018-08-10T15:23:40.944Z,30.80
2018-08-10T15:26:09.845Z,30.63
2018-08-10T15:28:38.739Z,30.39
2018-08-10T15:31:07.568Z,30.13
2018-08-10T15:33:36.732Z,30.27
2018-08-10T15:36:05.727Z,30.37
2018-08-10T15:38:34.533Z,30.45
2018-08-10T15:41:03.880Z,30.49
2018-08-10T15:43:32.709Z,30.59
2018-08-10T15:46:01.444Z,30.64
2018-08-10T15:48:30.343Z,30.73
2018-08-10T15:50:59.193Z,30.69
2018-08-10T15:53:28.000Z,30.73
2018-08-10T15:55:57.345Z,30.71
2018-08-10T15:58:26.297Z,30.71
2018-08-10T16:00:55.126Z,30.73
2018-08-10T16:03:24.429Z,30.75
2018-08-10T16:05:53.224Z,30.42
2018-08-10T16:08:22.053Z,30.48
2018-08-10T16:10:51.869Z,30.57
2018-08-10T16:13:20.771Z,30.66
2018-08-10T16:15:49.651Z,30.67
2018-08-10T16:18:18.751Z,30.72
2018-08-10T16:20:47.475Z,30.76
2018-08-10T16:23:16.473Z,30.73
2018-08-10T16:25:45.390Z,30.76
2018-08-10T16:28:14.229Z,30.74
2018-08-10T16:30:43.130Z,30.66
2018-08-10T16:33:12.485Z,30.57
2018-08-10T16:35:41.302Z,30.56
2018-08-10T16:38:10.317Z,30.61
2018-08-10T16:40:39.342Z,30.38
2018-08-10T16:43:08.282Z,30.42
2018-08-10T16:45:37.040Z,30.43
2018-08-10T16:48:05.803Z,30.41
2018-08-10T16:50:34.797Z,30.40
2018-08-10T16:53:03.665Z,30.41
2018-08-10T16:55:32.638Z,30.45
2018-08-10T16:58:01.531Z,30.35
2018-08-10T17:00:30.381Z,30.30
2018-08-10T17:02:59.625Z,30.23
2018-08-10T17:05:28.453Z,30.17
2018-08-10T17:07:57.393Z,30.12
2018-08-10T17:10:26.689Z,30.08
2018-08-10T17:12:55.549Z,29.95
2018-08-10T17:15:24.567Z,29.58
2018-08-10T17:17:53.937Z,29.62
2018-08-10T17:20:22.975Z,29.57
2018-08-10T17:22:51.852Z,29.55
2018-08-10T17:25:21.941Z,29.50
2018-08-10T17:27:50.683Z,29.45
2018-08-10T17:30:20.330Z,29.38
2018-08-10T17:32:49.426Z,29.28
2018-08-10T17:35:18.467Z,29.14
2018-08-10T17:37:47.832Z,29.03
2018-08-10T17:40:16.817Z,28.94
2018-08-10T17:42:45.677Z,28.85
2018-08-10T17:45:16.221Z,28.56
2018-08-10T17:47:45.506Z,28.52
2018-08-10T17:50:17.460Z,28.58
2018-08-10T17:52:47.834Z,28.48
2018-08-10T17:55:17.531Z,28.29
2018-08-10T17:57:46.665Z,28.22
2018-08-10T18:00:18.428Z,28.26
2018-08-10T18:02:47.767Z,28.24
2018-08-10T18:05:17.243Z,28.20
2018-08-10T18:07:46.941Z,28.11
2018-08-10T18:10:16.063Z,28.11
2018-08-10T18:12:45.550Z,28.01
2018-08-10T18:15:16.059Z,27.94
2018-08-10T18:17:45.154Z,27.92
2018-08-10T18:20:16.466Z,27.73
2018-08-10T18:22:46.610Z,27.55
2018-08-10T18:25:17.345Z,27.36
2018-08-10T18:27:46.233Z,27.47
2018-08-10T18:30:19.897Z,27.51
2018-08-10T18:32:49.036Z,27.36
2018-08-10T18:35:17.923Z,27.12
2018-08-10T18:37:48.148Z,27.07
2018-08-10T18:40:17.291Z,27.06
2018-08-10T18:42:47.340Z,26.88
2018-08-10T18:45:17.886Z,26.91
2018-08-10T18:47:47.832Z,26.67
2018-08-10T18:50:18.087Z,26.61
2018-08-10T18:52:47.158Z,26.64
2018-08-10T18:55:22.412Z,26.62
2018-08-10T18:57:51.568Z,26.64
2018-08-10T19:00:23.503Z,26.46
2018-08-10T19:02:52.325Z,26.46
2018-08-10T19:05:21.365Z,26.36
2018-08-10T19:07:50.933Z,26.34
2018-08-10T19:10:24.962Z,26.24
2018-08-10T19:12:54.259Z,26.19
2018-08-10T19:15:23.297Z,26.22
2018-08-10T19:17:52.331Z,26.15
2018-08-10T19:20:21.451Z,26.06
2018-08-10T19:22:50.421Z,25.87
2018-08-10T19:25:19.281Z,25.84
2018-08-10T19:27:48.641Z,25.81
2018-08-10T19:30:19.418Z,25.63
2018-08-10T19:32:49.023Z,25.49
2018-08-10T19:35:18.472Z,25.38
2018-08-10T19:37:47.436Z,25.33
2018-08-10T19:40:17.977Z,25.41
2018-08-10T19:42:47.593Z,25.34
2018-08-10T19:45:17.222Z,25.37
2018-08-10T19:47:46.110Z,25.42
2018-08-10T19:50:16.292Z,25.38
2018-08-10T19:52:45.156Z,25.34
2018-08-10T19:55:16.226Z,25.25
2018-08-10T19:57:45.226Z,25.16
2018-08-10T20:00:16.057Z,25.12
2018-08-10T20:02:46.823Z,25.06
2018-08-10T20:05:15.860Z,25.02
2018-08-10T20:07:44.795Z,24.90
2018-08-10T20:10:14.311Z,24.87
2018-08-10T20:12:43.299Z,24.81
2018-08-10T20:15:14.474Z,24.66
2018-08-10T20:17:44.209Z,24.58
2018-08-10T20:20:14.801Z,24.50
2018-08-10T20:22:43.929Z,24.41
2018-08-10T20:25:13.480Z,24.37
2018-08-10T20:27:42.288Z,24.26
2018-08-10T20:30:14.405Z,24.26
2018-08-10T20:32:43.469Z,24.27
2018-08-10T20:35:14.088Z,24.16
2018-08-10T20:37:43.367Z,24.16
2018-08-10T20:40:15.071Z,24.20
2018-08-10T20:42:44.079Z,24.10
2018-08-10T20:45:12.997Z,24.18
2018-08-10T20:47:42.345Z,24.17
2018-08-10T20:50:14.782Z,24.15
2018-08-10T20:52:44.591Z,24.04
2018-08-10T20:55:13.576Z,24.02
2018-08-10T20:57:42.756Z,23.93
2018-08-10T21:00:12.712Z,23.95
2018-08-10T21:02:43.154Z,23.91
2018-08-10T21:05:12.581Z,23.93
2018-08-10T21:07:41.421Z,23.80
2018-08-10T21:10:12.426Z,23.75
2018-08-10T21:12:42.712Z,23.75
2018-08-10T21:15:12.770Z,23.68
2018-08-10T21:17:42.927Z,23.57
2018-08-10T21:20:13.805Z,23.60
2018-08-10T21:22:42.983Z,23.48
2018-08-10T21:25:12.458Z,23.45
2018-08-10T21:27:41.778Z,23.48
2018-08-10T21:30:13.304Z,23.52
2018-08-10T21:32:42.216Z,23.52
2018-08-10T21:35:11.300Z,23.56
2018-08-10T21:37:40.640Z,23.43
2018-08-10T21:40:10.454Z,23.45
2018-08-10T21:42:40.213Z,23.40
2018-08-10T21:45:09.059Z,23.37
2018-08-10T21:47:38.397Z,23.35
2018-08-10T21:50:09.876Z,23.37
2018-08-10T21:52:38.955Z,23.26
2018-08-10T21:55:07.918Z,23.29
2018-08-10T21:57:36.956Z,23.32
2018-08-10T22:00:13.450Z,23.19
2018-08-10T22:02:42.773Z,23.12
2018-08-10T22:05:11.611Z,23.04
2018-08-10T22:07:40.531Z,23.11
2018-08-10T22:10:09.644Z,23.05
2018-08-10T22:12:43.440Z,22.99
2018-08-10T22:15:17.432Z,23.01
2018-08-10T22:17:51.397Z,23.02
2018-08-10T22:20:20.984Z,23.02
2018-08-10T22:22:49.880Z,22.86
2018-08-10T22:25:18.808Z,22.89
2018-08-10T22:27:47.653Z,22.86
2018-08-10T22:30:16.643Z,22.85
2018-08-10T22:32:45.571Z,22.81
2018-08-10T22:35:14.715Z,22.72
2018-08-10T22:37:43.590Z,22.65
2018-08-10T22:40:12.540Z,22.63
2018-08-10T22:42:41.447Z,22.58
2018-08-10T22:45:10.505Z,22.56
2018-08-10T22:47:39.421Z,22.65
2018-08-10T22:50:09.209Z,22.70
2018-08-10T22:52:38.201Z,22.61
2018-08-10T22:55:07.241Z,22.63
2018-08-10T22:57:36.553Z,22.60
2018-08-10T23:00:05.921Z,22.61
2018-08-10T23:02:34.808Z,22.44
2018-08-10T23:05:03.817Z,22.45
2018-08-10T23:07:32.742Z,22.38
2018-08-10T23:10:01.578Z,22.44
2018-08-10T23:12:30.536Z,22.48
2018-08-10T23:14:59.377Z,22.41
2018-08-10T23:17:28.285Z,22.31
2018-08-10T23:19:57.175Z,22.33
2018-08-10T23:22:25.963Z,22.24
2018-08-10T23:24:54.857Z,22.26
2018-08-10T23:27:23.853Z,22.17
2018-08-10T23:29:52.771Z,22.12
2018-08-10T23:32:21.705Z,22.15
2018-08-10T23:34:51.112Z,22.11
2018-08-10T23:37:20.077Z,22.10
2018-08-10T23:39:49.005Z,22.09
2018-08-10T23:42:18.331Z,22.02
2018-08-10T23:44:47.295Z,22.00
2018-08-10T23:47:16.141Z,22.05
2018-08-10T23:49:45.137Z,21.95
2018-08-10T23:52:13.916Z,21.89
2018-08-10T23:54:42.775Z,21.95
2018-08-10T23:57:12.118Z,21.93
2018-08-10T23:59:41.170Z,22.04
